Aktuelle Bildergalerien
Formel-1-Datenbank

Die "Königsklasse" seit 1950

In unserer ausführlichen Formel-1-Datenbank finden Sie Ergebnisse, alle Fahrer und Teams seit 1950 und unzählige Statistiken!
Zur Formel-1-Datenbank
ANZEIGE
ANZEIGE
ANZEIGE
Folgen Sie uns!
Motorsport-Total.com bei Facebook Motorsport-Total.com bei Google+ Motorsport-Total.com bei Twitter RSS-Feeds von Motorsport-Total.com
Sie sind hier: Home > Formel 1 > Ergebnisse > Malaysia 2010

 GP Malaysia in Sepang / 2. Freies Training

Session-Informationen im Überblick
Datum 02. April 2010 Wetter sonnig
Zeit (MESZ) 08:00-09:30 Uhr Lufttemp. 32-33°C
Ortszeit 14:00-15:30 Uhr Luftfeucht. 43-55%
Teilnehmer 24 Luftdruck 1.004 mBar
Rekord Rennen 1:34.223 Minuten Asphalt 49°C
Rekord Qualifying 1:33.074 Minuten Wind 2 m/s, südwestlich

Gefahrene Zeiten

Pos. Nr. Fahrer Team Zeit Abstand auf V. Rnd.
1 2 L. Hamilton McLaren 1:34.175     27
2 5 S. Vettel Red Bull 1:34.441 +0:00.266 +0:00.266 28
3 4 N. Rosberg Mercedes 1:34.443 +0:00.268 +0:00.002 30
4 1 J. Button McLaren 1:34.538 +0:00.363 +0:00.095 24
5 3 M. Schumacher Mercedes 1:34.674 +0:00.499 +0:00.136 30
6 11 R. Kubica Renault 1:35.148 +0:00.973 +0:00.474 34
7 8 F. Alonso Ferrari 1:35.581 +0:01.406 +0:00.433 34
8 16 S. Buemi Toro Rosso 1:35.660 +0:01.485 +0:00.079 39
9 12 V. Petrov Renault 1:35.872 +0:01.697 +0:00.212 20
10 14 A. Sutil Force India 1:35.957 +0:01.782 +0:00.085 32
11 23 K. Kobayashi Sauber 1:36.018 +0:01.843 +0:00.061 38
12 15 V. Liuzzi Force India 1:36.221 +0:02.046 +0:00.203 34
13 22 P. de la Rosa Sauber 1:36.325 +0:02.150 +0:00.104 33
14 17 J. Alguersuari Toro Rosso 1:36.325 +0:02.150 +0:00.000 39
15 7 F. Massa Ferrari 1:36.602 +0:02.427 +0:00.277 30
16 9 R. Barrichello Williams 1:36.813 +0:02.638 +0:00.211 26
17 10 N. Hülkenberg Williams 1:37.415 +0:03.240 +0:00.602 19
18 18 J. Trulli Lotus 1:38.454 +0:04.279 +0:01.039 34
19 19 H. Kovalainen Lotus 1:38.530 +0:04.355 +0:00.076 32
20 6 M. Webber Red Bull 1:38.786 +0:04.611 +0:00.256 13
21 24 T. Glock Virgin 1:39.061 +0:04.886 +0:00.275 23
22 25 L. di Grassi Virgin 1:39.158 +0:04.983 +0:00.097 29
23 20 K. Chandhok HRT 1:41.084 +0:06.909 +0:01.926 27
24 21 B. Senna HRT 1:41.481 +0:07.306 +0:00.397 32
auf V. = auf Vordermann, Rnd. = Runden

 

 
Nach oben